Aplicació Alertes

Dades de l'estació automàtica Navata

?
?
Resum diari 23:00 TU
Dades diàries de l'estació meteorològica
Temperatura mitjana 10.7 °C
Temperatura màxima 15.8 °C 10:16 TU
Temperatura mínima 7.0 °C 7:32 TU
Humitat relativa mitjana 83%
Precipitació acumulada 0.0 mm
Ratxa màxima del vent (10 m) 15.1 km/h - 245º 21:27 TU
Irradiació solar global 5.6 MJ/m2

El tram horari està expressat en Temps Universal (TU). Cal sumar una hora en horari d'hivern i dues en horari d'estiu per passar a l'hora oficial.

Navata

Metadades estació meteorol´gica
Municipi Navata
Comarca Alt Empordà
Altitud 152 m
Data alta 26.08.2014
Estat actual Operativa
Dades de període
Període
TU
TM
°C
TX
°C
TN
°C
HRM
%
PPT
mm
VVM (10 m)
km/h
DVM (10 m)
graus
VVX (10 m)
km/h
RS
W/m2
00:00 - 00:30 9.7 10.2 9.3 83 0.0 8.3 246 11.5 0
00:30 - 01:00 9.5 10.0 9.0 83 0.0 8.6 261 11.9 0
01:00 - 01:30 9.1 9.6 8.6 84 0.0 8.6 272 12.2 0
01:30 - 02:00 9.0 9.3 8.5 84 0.0 9.7 255 13.7 0
02:00 - 02:30 8.5 9.0 7.8 85 0.0 7.6 250 10.4 0
02:30 - 03:00 8.6 9.1 8.0 85 0.0 6.8 240 13.0 0
03:00 - 03:30 8.2 8.6 7.9 85 0.0 8.3 263 11.2 0
03:30 - 04:00 8.3 9.0 7.7 85 0.0 7.9 233 11.9 0
04:00 - 04:30 7.9 8.9 7.2 86 0.0 6.8 244 11.2 0
04:30 - 05:00 7.8 8.4 7.1 87 0.0 6.5 307 10.1 0
05:00 - 05:30 7.7 8.3 7.0 86 0.0 4.0 268 10.1 0
05:30 - 06:00 8.0 9.1 7.5 85 0.0 6.5 261 11.5 0
06:00 - 06:30 7.6 7.7 7.2 87 0.0 8.3 258 11.5 0
06:30 - 07:00 8.3 8.9 7.7 84 0.0 9.0 271 12.2 0
07:00 - 07:30 7.9 8.4 7.0 85 0.0 4.7 239 8.3 6
07:30 - 08:00 7.8 8.5 7.0 86 0.0 7.6 280 11.2 63
08:00 - 08:30 8.6 9.7 7.6 86 0.0 7.9 281 11.9 139
08:30 - 09:00 12.2 13.7 10.0 75 0.0 4.0 351 6.5 217
09:00 - 09:30 13.1 13.7 12.6 71 0.0 1.8 271 5.8 287
09:30 - 10:00 14.2 14.6 13.6 68 0.0 3.6 210 6.5 356
10:00 - 10:30 15.2 15.8 14.6 68 0.0 5.4 117 12.6 445
10:30 - 11:00 14.6 15.0 14.3 70 0.0 6.5 89 12.2 381
11:00 - 11:30 14.6 14.7 14.3 70 0.0 4.3 89 8.3 206
11:30 - 12:00 14.5 15.1 14.2 69 0.0 3.2 73 6.8 193
12:00 - 12:30 14.7 15.1 14.3 68 0.0 2.5 17 5.8 143
12:30 - 13:00 14.1 14.4 13.9 75 0.0 5.0 17 7.6 107
13:00 - 13:30 13.9 13.9 13.8 78 0.0 5.0 32 7.2 103
13:30 - 14:00 13.8 13.9 13.7 77 0.0 4.3 23 6.5 93
14:00 - 14:30 13.7 13.8 13.6 78 0.0 5.4 11 6.8 102
14:30 - 15:00 13.5 13.6 13.5 81 0.0 4.7 2 6.8 74
15:00 - 15:30 13.2 13.5 13.1 83 0.0 6.5 23 8.3 64
15:30 - 16:00 13.5 13.9 13.1 80 0.0 2.5 14 5.8 85
16:00 - 16:30 13.8 13.9 13.6 80 0.0 1.8 275 4.3 73
16:30 - 17:00 13.0 13.7 12.6 83 0.0 3.2 234 7.2 16
17:00 - 17:30 12.5 12.6 12.4 85 0.0 6.1 228 8.6 0
17:30 - 18:00 11.4 12.4 10.8 88 0.0 6.1 257 8.6 0
18:00 - 18:30 10.6 10.9 10.4 92 0.0 5.8 267 7.9 0
18:30 - 19:00 10.3 10.6 9.7 92 0.0 5.8 305 7.6 0
19:00 - 19:30 8.9 9.5 8.6 92 0.0 3.6 330 9.0 0
19:30 - 20:00 8.8 9.1 8.4 91 0.0 3.6 266 12.2 0
20:00 - 20:30 8.6 9.0 8.3 92 0.0 5.4 251 14.8 0
20:30 - 21:00 9.8 10.6 8.9 90 0.0 5.4 195 11.5 0
21:00 - 21:30 9.3 9.7 8.6 91 0.0 9.7 245 15.1 0
21:30 - 22:00 8.8 9.0 8.6 93 0.0 8.3 255 12.6 0
22:00 - 22:30 8.8 9.1 8.6 92 0.0 5.8 275 10.4 0
22:30 - 23:00 9.4 9.8 9.0 89 0.0 3.6 239 8.6 0
23:00 - 23:30 8.9 10.0 8.0 88 0.0 5.4 204 10.4 0

Les dades en taronja només han passat un control de qualitat automàtic. Resta pendent la seva validació definitiva.